createdAt,value
2018-04-22T00:00:58.738Z,18.67
2018-04-22T00:01:58.714Z,18.67
2018-04-22T00:02:58.815Z,18.66
2018-04-22T00:03:58.720Z,18.7
2018-04-22T00:04:58.697Z,18.67
2018-04-22T00:05:58.678Z,18.68
2018-04-22T00:06:58.840Z,18.66
2018-04-22T00:07:58.723Z,18.67
2018-04-22T00:08:58.795Z,18.67
2018-04-22T00:09:58.646Z,18.64
2018-04-22T00:10:58.749Z,18.66
2018-04-22T00:11:58.823Z,18.64
2018-04-22T00:12:58.654Z,18.63
2018-04-22T00:13:58.734Z,18.68
2018-04-22T00:14:58.681Z,18.64
2018-04-22T00:15:58.933Z,18.64
2018-04-22T00:16:58.718Z,18.64
2018-04-22T00:17:58.686Z,18.66
2018-04-22T00:18:58.904Z,18.64
2018-04-22T00:19:58.638Z,18.67
2018-04-22T00:20:58.749Z,18.64
2018-04-22T00:21:58.864Z,18.64
2018-04-22T00:22:58.916Z,18.66
2018-04-22T00:23:58.666Z,18.63
2018-04-22T00:24:58.820Z,18.62
2018-04-22T00:25:58.783Z,18.63
2018-04-22T00:26:58.908Z,18.64
2018-04-22T00:27:58.688Z,18.63
2018-04-22T00:28:58.635Z,18.66
2018-04-22T00:29:58.805Z,18.66
2018-04-22T00:30:58.872Z,18.64
2018-04-22T00:31:58.815Z,18.66
2018-04-22T00:32:58.714Z,18.64
2018-04-22T00:33:58.747Z,18.62
2018-04-22T00:34:58.732Z,18.63
2018-04-22T00:35:58.846Z,18.63
2018-04-22T00:36:58.932Z,18.63
2018-04-22T00:37:58.624Z,18.64
2018-04-22T00:38:58.646Z,18.62
2018-04-22T00:39:58.804Z,18.6
2018-04-22T00:40:58.804Z,18.63
2018-04-22T00:41:58.831Z,18.63
2018-04-22T00:42:58.813Z,18.63
2018-04-22T00:43:58.652Z,18.63
2018-04-22T00:44:58.707Z,18.6
2018-04-22T00:45:58.783Z,18.63
2018-04-22T00:46:58.640Z,18.64
2018-04-22T00:47:58.748Z,18.63
2018-04-22T00:48:58.896Z,18.58
2018-04-22T00:49:58.867Z,18.62
2018-04-22T00:50:58.776Z,18.62
2018-04-22T00:51:58.814Z,18.62
2018-04-22T00:52:58.788Z,18.62
2018-04-22T00:53:58.626Z,18.6
2018-04-22T00:54:58.685Z,18.58
2018-04-22T00:55:58.729Z,18.63
2018-04-22T00:56:58.914Z,18.62
2018-04-22T00:57:58.895Z,18.62
2018-04-22T00:58:58.814Z,18.62
2018-04-22T00:59:58.622Z,18.6
2018-04-22T01:00:58.760Z,18.58
2018-04-22T01:01:58.780Z,18.58
2018-04-22T01:02:58.742Z,18.62
2018-04-22T01:03:58.859Z,18.58
2018-04-22T01:04:58.747Z,18.6
2018-04-22T01:05:58.572Z,18.62
2018-04-22T01:06:58.810Z,18.6
2018-04-22T01:07:58.652Z,18.62
2018-04-22T01:08:58.730Z,18.63
2018-04-22T01:09:58.806Z,18.57
2018-04-22T01:10:58.817Z,18.6
2018-04-22T01:11:58.818Z,18.62
2018-04-22T01:12:58.806Z,18.58
2018-04-22T01:13:58.728Z,18.58
2018-04-22T01:14:58.745Z,18.62
2018-04-22T01:15:58.837Z,18.58
2018-04-22T01:16:58.929Z,18.6
2018-04-22T01:17:58.807Z,18.58
2018-04-22T01:18:58.798Z,18.57
2018-04-22T01:19:58.847Z,18.64
2018-04-22T01:20:58.900Z,18.6
2018-04-22T01:21:58.861Z,18.56
2018-04-22T01:22:58.819Z,18.6
2018-04-22T01:23:58.765Z,18.58
2018-04-22T01:24:58.601Z,18.58
2018-04-22T01:25:58.908Z,18.6
2018-04-22T01:26:58.865Z,18.58
2018-04-22T01:27:58.680Z,18.58
2018-04-22T01:28:58.777Z,18.63
2018-04-22T01:29:59.009Z,18.6
2018-04-22T01:30:58.632Z,18.58
2018-04-22T01:31:58.756Z,18.6
2018-04-22T01:32:59.109Z,18.58
2018-04-22T01:33:58.894Z,18.58
2018-04-22T01:34:58.916Z,18.6
2018-04-22T01:35:58.699Z,18.58
2018-04-22T01:36:58.886Z,18.56
2018-04-22T01:37:58.729Z,18.57
2018-04-22T01:38:58.796Z,18.58
2018-04-22T01:39:58.703Z,18.57
2018-04-22T01:40:58.807Z,18.58
2018-04-22T01:41:58.974Z,18.57
2018-04-22T01:42:58.977Z,18.57
2018-04-22T01:43:58.829Z,18.56
2018-04-22T01:44:58.732Z,18.57
2018-04-22T01:45:58.895Z,18.58
2018-04-22T01:46:58.871Z,18.58
2018-04-22T01:47:58.767Z,18.6
2018-04-22T01:48:58.694Z,18.56
2018-04-22T01:49:58.591Z,18.58
2018-04-22T01:50:58.807Z,18.6
2018-04-22T01:51:58.835Z,18.54
2018-04-22T01:52:58.793Z,18.57
2018-04-22T01:53:58.668Z,18.57
2018-04-22T01:54:58.709Z,18.54
2018-04-22T01:55:59.031Z,18.58
2018-04-22T01:56:58.848Z,18.58
2018-04-22T01:57:58.632Z,18.57
2018-04-22T01:58:58.694Z,18.57
2018-04-22T01:59:58.823Z,18.57
2018-04-22T02:00:58.905Z,18.56
2018-04-22T02:01:58.821Z,18.6
2018-04-22T02:02:58.831Z,18.57
2018-04-22T02:03:58.780Z,18.56
2018-04-22T02:04:58.808Z,18.58
2018-04-22T02:05:58.594Z,18.57
2018-04-22T02:06:58.809Z,18.56
2018-04-22T02:07:58.797Z,18.58
2018-04-22T02:08:58.580Z,18.54
2018-04-22T02:09:58.804Z,18.56
2018-04-22T02:10:58.712Z,18.57
2018-04-22T02:11:59.126Z,18.57
2018-04-22T02:12:58.632Z,18.56
2018-04-22T02:13:58.711Z,18.58
2018-04-22T02:14:58.622Z,18.56
2018-04-22T02:15:58.765Z,18.54
2018-04-22T02:16:58.917Z,18.57
2018-04-22T02:17:59.249Z,18.56
2018-04-22T02:18:58.756Z,18.56
2018-04-22T02:19:58.613Z,18.57
2018-04-22T02:20:58.766Z,18.57
2018-04-22T02:21:58.945Z,18.54
2018-04-22T02:22:58.871Z,18.57
2018-04-22T02:23:58.715Z,18.56
2018-04-22T02:24:58.777Z,18.54
2018-04-22T02:25:58.781Z,18.56
2018-04-22T02:26:58.661Z,18.53
2018-04-22T02:27:58.637Z,18.56
2018-04-22T02:28:58.815Z,18.57
2018-04-22T02:29:58.804Z,18.54
2018-04-22T02:30:58.869Z,18.56
2018-04-22T02:31:58.791Z,18.58
2018-04-22T02:32:58.656Z,18.57
2018-04-22T02:33:58.828Z,18.56
2018-04-22T02:34:58.815Z,18.56
2018-04-22T02:35:58.852Z,18.57
2018-04-22T02:36:58.624Z,18.54
2018-04-22T02:37:58.820Z,18.56
2018-04-22T02:38:58.878Z,18.56
2018-04-22T02:39:58.877Z,18.54
2018-04-22T02:40:58.662Z,18.58
2018-04-22T02:41:58.781Z,18.57
2018-04-22T02:42:58.911Z,18.54
2018-04-22T02:43:58.651Z,18.54
2018-04-22T02:44:58.696Z,18.54
2018-04-22T02:45:58.812Z,18.56
2018-04-22T02:46:58.485Z,18.56
2018-04-22T02:47:58.646Z,18.54
2018-04-22T02:48:58.727Z,18.53
2018-04-22T02:49:58.896Z,18.53
2018-04-22T02:50:58.739Z,18.54
2018-04-22T02:51:58.720Z,18.56
2018-04-22T02:52:58.636Z,18.54
2018-04-22T02:53:58.639Z,18.54
2018-04-22T02:54:58.835Z,18.54
2018-04-22T02:55:58.823Z,18.53
2018-04-22T02:56:58.680Z,18.54
2018-04-22T02:57:58.818Z,18.51
2018-04-22T02:58:58.801Z,18.54
2018-04-22T02:59:58.701Z,18.54
2018-04-22T03:00:58.813Z,18.5
2018-04-22T03:01:58.657Z,18.54
2018-04-22T03:02:58.825Z,18.54
2018-04-22T03:03:58.577Z,18.53
2018-04-22T03:04:58.678Z,18.56
2018-04-22T03:05:58.574Z,18.54
2018-04-22T03:06:58.711Z,18.53
2018-04-22T03:07:59.130Z,18.56
2018-04-22T03:08:58.722Z,18.54
2018-04-22T03:09:58.778Z,18.53
2018-04-22T03:10:58.615Z,18.54
2018-04-22T03:11:58.726Z,18.53
2018-04-22T03:12:58.778Z,18.5
2018-04-22T03:13:58.634Z,18.54
2018-04-22T03:14:58.555Z,18.53
2018-04-22T03:15:58.738Z,18.53
2018-04-22T03:16:58.758Z,18.54
2018-04-22T03:17:58.817Z,18.53
2018-04-22T03:18:58.577Z,18.53
2018-04-22T03:19:58.575Z,18.54
2018-04-22T03:20:58.634Z,18.51
2018-04-22T03:21:58.634Z,18.51
2018-04-22T03:22:58.655Z,18.53
2018-04-22T03:23:58.806Z,18.56
2018-04-22T03:24:58.602Z,18.53
2018-04-22T03:25:58.747Z,18.56
2018-04-22T03:26:58.827Z,18.56
2018-04-22T03:27:58.768Z,18.53
2018-04-22T03:28:58.724Z,18.53
2018-04-22T03:29:58.573Z,18.51
2018-04-22T03:30:58.564Z,18.51
2018-04-22T03:31:58.779Z,18.53
2018-04-22T03:32:58.843Z,18.54
2018-04-22T03:33:58.688Z,18.51
2018-04-22T03:34:58.756Z,18.53
2018-04-22T03:35:58.819Z,18.53
2018-04-22T03:36:58.588Z,18.53
2018-04-22T03:37:58.836Z,18.53
2018-04-22T03:38:58.768Z,18.53
2018-04-22T03:39:58.652Z,18.51
2018-04-22T03:40:58.727Z,18.53
2018-04-22T03:41:58.851Z,18.53
2018-04-22T03:42:58.738Z,18.5
2018-04-22T03:43:58.574Z,18.53
2018-04-22T03:44:58.712Z,18.51
2018-04-22T03:45:58.763Z,18.5
2018-04-22T03:46:58.832Z,18.53
2018-04-22T03:47:58.839Z,18.53
2018-04-22T03:48:58.593Z,18.5
2018-04-22T03:49:58.542Z,18.51
2018-04-22T03:50:58.804Z,18.54
2018-04-22T03:51:58.786Z,18.5
2018-04-22T03:52:58.821Z,18.51
2018-04-22T03:53:58.717Z,18.51
2018-04-22T03:54:58.780Z,18.5
2018-04-22T03:55:58.657Z,18.53
2018-04-22T03:56:58.722Z,18.5
2018-04-22T03:57:58.742Z,18.5
2018-04-22T03:58:58.648Z,18.53
2018-04-22T03:59:58.588Z,18.51
2018-04-22T04:00:58.605Z,18.5
2018-04-22T04:01:58.701Z,18.51
2018-04-22T04:02:58.612Z,18.5
2018-04-22T04:03:58.655Z,18.49
2018-04-22T04:04:58.663Z,18.53
2018-04-22T04:05:58.749Z,18.51
2018-04-22T04:06:58.550Z,18.47
2018-04-22T04:07:58.795Z,18.5
2018-04-22T04:08:58.728Z,18.49
2018-04-22T04:09:58.902Z,18.5
2018-04-22T04:10:58.662Z,18.53
2018-04-22T04:11:58.716Z,18.51
2018-04-22T04:12:58.718Z,18.49
2018-04-22T04:13:58.584Z,18.51
2018-04-22T04:14:58.384Z,18.51
2018-04-22T04:15:58.860Z,18.49
2018-04-22T04:16:58.762Z,18.53
2018-04-22T04:17:58.743Z,18.5
2018-04-22T04:18:58.653Z,18.5
2018-04-22T04:19:58.555Z,18.51
2018-04-22T04:20:58.685Z,18.51
2018-04-22T04:21:58.765Z,18.5
2018-04-22T04:22:58.709Z,18.51
2018-04-22T04:23:58.865Z,18.47
2018-04-22T04:24:58.650Z,18.5
2018-04-22T04:25:58.649Z,18.5
2018-04-22T04:26:58.685Z,18.51
2018-04-22T04:27:58.526Z,18.5
2018-04-22T04:28:58.671Z,18.5
2018-04-22T04:29:58.681Z,18.5
2018-04-22T04:30:58.838Z,18.5
2018-04-22T04:31:58.734Z,18.53
2018-04-22T04:32:58.719Z,18.51
2018-04-22T04:33:58.622Z,18.5
2018-04-22T04:34:58.638Z,18.51
2018-04-22T04:35:59.078Z,18.5
2018-04-22T04:36:58.624Z,18.49
2018-04-22T04:37:58.777Z,18.51
2018-04-22T04:38:58.546Z,18.54
2018-04-22T04:39:58.820Z,18.47
2018-04-22T04:40:58.791Z,18.51
2018-04-22T04:41:58.805Z,18.49
2018-04-22T04:42:58.708Z,18.49
2018-04-22T04:43:58.648Z,18.51
2018-04-22T04:44:58.572Z,18.5
2018-04-22T04:45:58.598Z,18.47
2018-04-22T04:46:58.583Z,18.51
2018-04-22T04:47:58.812Z,18.53
2018-04-22T04:48:58.801Z,18.5
2018-04-22T04:49:58.797Z,18.51
2018-04-22T04:50:58.623Z,18.49
2018-04-22T04:51:58.707Z,18.5
2018-04-22T04:52:58.847Z,18.5
2018-04-22T04:53:58.850Z,18.49
2018-04-22T04:54:58.895Z,18.49
2018-04-22T04:55:58.574Z,18.49
2018-04-22T04:56:58.678Z,18.51
2018-04-22T04:57:58.706Z,18.47
2018-04-22T04:58:58.684Z,18.53
2018-04-22T04:59:58.737Z,18.49
2018-04-22T05:00:58.741Z,18.47
2018-04-22T05:01:58.632Z,18.51
2018-04-22T05:02:58.726Z,18.5
2018-04-22T05:03:58.616Z,18.49
2018-04-22T05:04:58.868Z,18.51
2018-04-22T05:05:58.566Z,18.51
2018-04-22T05:06:58.756Z,18.49
2018-04-22T05:07:58.667Z,18.5
2018-04-22T05:08:58.854Z,18.5
2018-04-22T05:09:58.559Z,18.49
2018-04-22T05:10:58.750Z,18.47
2018-04-22T05:11:58.742Z,18.49
2018-04-22T05:12:58.719Z,18.5
2018-04-22T05:13:58.625Z,18.5
2018-04-22T05:14:58.709Z,18.51
2018-04-22T05:15:58.875Z,18.47
2018-04-22T05:16:58.768Z,18.51
2018-04-22T05:17:58.553Z,18.51
2018-04-22T05:18:58.705Z,18.47
2018-04-22T05:19:58.729Z,18.5
2018-04-22T05:20:58.721Z,18.49
2018-04-22T05:21:58.612Z,18.49
2018-04-22T05:22:58.603Z,18.5
2018-04-22T05:23:58.652Z,18.5
2018-04-22T05:24:58.713Z,18.49
2018-04-22T05:25:58.607Z,18.5
2018-04-22T05:26:58.658Z,18.5
2018-04-22T05:27:58.556Z,18.47
2018-04-22T05:28:58.743Z,18.5
2018-04-22T05:29:58.589Z,18.5
2018-04-22T05:30:58.707Z,18.51
2018-04-22T05:31:58.650Z,18.51
2018-04-22T05:32:58.648Z,18.49
2018-04-22T05:33:58.541Z,18.49
2018-04-22T05:34:58.580Z,18.49
2018-04-22T05:35:58.549Z,18.5
2018-04-22T05:36:58.674Z,18.5
2018-04-22T05:37:58.626Z,18.5
2018-04-22T05:38:58.745Z,18.47
2018-04-22T05:39:58.614Z,18.46
2018-04-22T05:40:58.680Z,18.49
2018-04-22T05:41:58.654Z,18.5
2018-04-22T05:42:58.529Z,18.49
2018-04-22T05:43:58.766Z,18.5
2018-04-22T05:44:58.659Z,18.5
2018-04-22T05:45:58.785Z,18.47
2018-04-22T05:46:58.591Z,18.5
2018-04-22T05:47:58.654Z,18.49
2018-04-22T05:48:58.629Z,18.49
2018-04-22T05:49:58.554Z,18.47
2018-04-22T05:50:58.713Z,18.5
2018-04-22T05:51:58.794Z,18.49
2018-04-22T05:52:58.571Z,18.49
2018-04-22T05:53:58.724Z,18.47
2018-04-22T05:54:58.982Z,18.49
2018-04-22T05:55:58.718Z,18.49
2018-04-22T05:56:58.631Z,18.49
2018-04-22T05:57:58.625Z,18.49
2018-04-22T05:58:58.611Z,18.47
2018-04-22T05:59:58.664Z,18.5
2018-04-22T06:00:58.676Z,18.46
2018-04-22T06:01:58.375Z,18.47
2018-04-22T06:02:58.688Z,18.47
2018-04-22T06:03:58.748Z,18.47
2018-04-22T06:04:58.726Z,18.53
2018-04-22T06:05:58.566Z,18.58
2018-04-22T06:06:58.628Z,18.57
2018-04-22T06:07:58.881Z,18.56
2018-04-22T06:08:58.587Z,18.54
2018-04-22T06:09:58.737Z,18.53
2018-04-22T06:10:58.649Z,18.51
2018-04-22T06:11:58.591Z,18.53
2018-04-22T06:12:58.575Z,18.5
2018-04-22T06:13:58.695Z,18.51
2018-04-22T06:14:58.840Z,18.49
2018-04-22T06:15:58.802Z,18.5
2018-04-22T06:16:58.721Z,18.49
2018-04-22T06:17:58.804Z,18.5
2018-04-22T06:18:58.785Z,18.46
2018-04-22T06:19:58.551Z,18.51
2018-04-22T06:20:58.854Z,18.5
2018-04-22T06:21:58.841Z,18.5
2018-04-22T06:22:58.752Z,18.5
2018-04-22T06:23:58.749Z,18.47
2018-04-22T06:24:58.539Z,18.5
2018-04-22T06:25:58.667Z,18.49
2018-04-22T06:26:58.433Z,18.49
2018-04-22T06:27:58.614Z,18.46
2018-04-22T06:28:58.619Z,18.51
2018-04-22T06:29:58.638Z,18.47
2018-04-22T06:30:58.497Z,18.46
2018-04-22T06:31:58.782Z,18.49
2018-04-22T06:32:58.740Z,18.49
2018-04-22T06:33:58.688Z,18.47
2018-04-22T06:34:58.626Z,18.49
2018-04-22T06:35:58.561Z,18.47
2018-04-22T06:36:58.501Z,18.47
2018-04-22T06:37:58.698Z,18.49
2018-04-22T06:38:58.651Z,18.47
2018-04-22T06:39:58.503Z,18.49
2018-04-22T06:40:58.636Z,18.49
2018-04-22T06:41:58.722Z,18.49
2018-04-22T06:42:58.627Z,18.47
2018-04-22T06:43:58.465Z,18.49
2018-04-22T06:44:58.687Z,18.47
2018-04-22T06:45:58.710Z,18.47
2018-04-22T06:46:58.787Z,18.49
2018-04-22T06:47:58.670Z,18.47
2018-04-22T06:48:58.768Z,18.47
2018-04-22T06:49:58.508Z,18.49
2018-04-22T06:50:58.672Z,18.49
2018-04-22T06:51:58.504Z,18.47
2018-04-22T06:52:58.636Z,18.47
2018-04-22T06:53:58.571Z,18.5
2018-04-22T06:54:58.635Z,18.49
2018-04-22T06:55:58.739Z,18.47
2018-04-22T06:56:58.697Z,18.5
2018-04-22T06:57:58.781Z,18.53
2018-04-22T06:58:58.685Z,18.57
2018-04-22T06:59:58.564Z,18.58
2018-04-22T07:00:58.666Z,18.56
2018-04-22T07:01:58.647Z,18.57
2018-04-22T07:02:58.591Z,18.57
2018-04-22T07:03:58.703Z,18.56
2018-04-22T07:04:58.821Z,18.6
2018-04-22T07:05:58.648Z,18.62
2018-04-22T07:06:58.766Z,18.63
2018-04-22T07:07:58.502Z,18.67
2018-04-22T07:08:58.646Z,18.64
2018-04-22T07:09:58.755Z,18.67
2018-04-22T07:10:58.494Z,18.71
2018-04-22T07:11:58.622Z,18.68
2018-04-22T07:12:58.585Z,18.68
2018-04-22T07:13:58.636Z,18.7
2018-04-22T07:14:58.737Z,18.73
2018-04-22T07:15:58.538Z,18.71
2018-04-22T07:16:58.504Z,18.73
2018-04-22T07:17:58.658Z,18.7
2018-04-22T07:18:58.734Z,18.63
2018-04-22T07:19:58.518Z,18.64
2018-04-22T07:20:58.653Z,18.64
2018-04-22T07:21:58.589Z,18.6
2018-04-22T07:22:58.656Z,18.62
2018-04-22T07:23:59.169Z,18.63
2018-04-22T07:24:58.584Z,18.58
2018-04-22T07:25:58.595Z,18.6
2018-04-22T07:26:58.566Z,18.6
2018-04-22T07:27:58.592Z,18.57
2018-04-22T07:28:58.586Z,18.58
2018-04-22T07:29:58.670Z,18.57
2018-04-22T07:30:58.485Z,18.56
2018-04-22T07:31:58.661Z,18.58
2018-04-22T07:32:58.690Z,18.56
2018-04-22T07:33:58.700Z,18.57
2018-04-22T07:34:58.593Z,18.58
2018-04-22T07:35:58.626Z,18.57
2018-04-22T07:36:58.527Z,18.56
2018-04-22T07:37:58.778Z,18.57
2018-04-22T07:38:58.701Z,18.58
2018-04-22T07:39:58.543Z,18.57
2018-04-22T07:40:58.603Z,18.57
2018-04-22T07:41:58.460Z,18.57
2018-04-22T07:42:58.571Z,18.56
2018-04-22T07:43:58.697Z,18.6
2018-04-22T07:44:58.710Z,18.56
2018-04-22T07:45:58.524Z,18.54
2018-04-22T07:46:58.562Z,18.57
2018-04-22T07:47:58.746Z,18.58
2018-04-22T07:48:58.592Z,18.57
2018-04-22T07:49:58.768Z,18.57
2018-04-22T07:50:58.543Z,18.56
2018-04-22T07:51:58.621Z,18.56
2018-04-22T07:52:58.702Z,18.57
2018-04-22T07:53:58.600Z,18.56
2018-04-22T07:54:58.676Z,18.57
2018-04-22T07:55:58.498Z,18.57
2018-04-22T07:56:58.540Z,18.56
2018-04-22T07:57:58.605Z,18.56
2018-04-22T07:58:58.725Z,18.6
2018-04-22T07:59:58.531Z,18.56
2018-04-22T08:00:58.659Z,18.56
2018-04-22T08:01:58.741Z,18.54
2018-04-22T08:02:58.518Z,18.56
2018-04-22T08:03:58.508Z,18.56
2018-04-22T08:04:58.626Z,18.56
2018-04-22T08:05:58.627Z,18.54
2018-04-22T08:06:58.462Z,18.54
2018-04-22T08:07:58.699Z,18.56
2018-04-22T08:08:58.669Z,18.56
2018-04-22T08:09:58.734Z,18.54
2018-04-22T08:10:58.555Z,18.57
2018-04-22T08:11:58.618Z,18.56
2018-04-22T08:12:58.621Z,18.54
2018-04-22T08:13:58.791Z,18.53
2018-04-22T08:14:58.667Z,18.57
2018-04-22T08:15:58.663Z,18.54
2018-04-22T08:16:58.757Z,18.54
2018-04-22T08:17:58.817Z,18.54
2018-04-22T08:18:58.655Z,18.51
2018-04-22T08:19:58.746Z,18.54
2018-04-22T08:20:58.781Z,18.54
2018-04-22T08:21:58.592Z,18.53
2018-04-22T08:22:58.568Z,18.53
2018-04-22T08:23:58.697Z,18.56
2018-04-22T08:24:58.692Z,18.51
2018-04-22T08:25:58.548Z,18.53
2018-04-22T08:26:58.654Z,18.53
2018-04-22T08:27:58.629Z,18.5
2018-04-22T08:28:58.483Z,18.54
2018-04-22T08:29:58.619Z,18.51
2018-04-22T08:30:58.569Z,18.53
2018-04-22T08:31:58.434Z,18.54
2018-04-22T08:32:58.721Z,18.54
2018-04-22T08:33:59.156Z,18.53
2018-04-22T08:34:58.643Z,18.56
2018-04-22T08:35:58.607Z,18.54
2018-04-22T08:36:58.619Z,18.51
2018-04-22T08:37:58.537Z,18.53
2018-04-22T08:38:58.596Z,18.53
2018-04-22T08:39:58.695Z,18.53
2018-04-22T08:40:58.502Z,18.54
2018-04-22T08:41:58.613Z,18.54
2018-04-22T08:42:58.523Z,18.53
2018-04-22T08:43:59.008Z,18.53
2018-04-22T08:44:58.731Z,18.51
2018-04-22T08:45:58.696Z,18.53
2018-04-22T08:46:58.623Z,18.51
2018-04-22T08:47:58.585Z,18.54
2018-04-22T08:48:58.975Z,18.51
2018-04-22T08:49:58.598Z,18.54
2018-04-22T08:50:58.659Z,18.53
2018-04-22T08:51:58.733Z,18.51
2018-04-22T08:52:58.537Z,18.53
2018-04-22T08:53:58.796Z,18.54
2018-04-22T08:54:58.490Z,18.51
2018-04-22T08:55:58.624Z,18.53
2018-04-22T08:56:58.497Z,18.53
2018-04-22T08:57:58.507Z,18.5
2018-04-22T08:58:59.045Z,18.5
2018-04-22T08:59:58.651Z,18.51
2018-04-22T09:00:58.613Z,18.51
2018-04-22T09:01:58.933Z,18.5
2018-04-22T09:02:58.950Z,18.51
2018-04-22T09:03:58.586Z,18.49
2018-04-22T09:04:58.947Z,18.53
2018-04-22T09:05:58.763Z,18.53
2018-04-22T09:06:58.749Z,18.53
2018-04-22T09:07:58.681Z,18.53
2018-04-22T09:08:58.590Z,18.51
2018-04-22T09:09:58.806Z,18.49
2018-04-22T09:10:58.573Z,18.51
2018-04-22T09:11:59.125Z,18.5
2018-04-22T09:12:59.195Z,18.5
2018-04-22T09:13:58.464Z,18.51
2018-04-22T09:14:58.485Z,18.51
2018-04-22T09:15:58.790Z,18.5
2018-04-22T09:16:58.625Z,18.5
2018-04-22T09:17:58.688Z,18.53
2018-04-22T09:18:58.525Z,18.49
2018-04-22T09:19:58.929Z,18.53
2018-04-22T09:20:58.662Z,18.51
2018-04-22T09:21:58.833Z,18.5
2018-04-22T09:22:58.591Z,18.51
2018-04-22T09:23:58.691Z,18.5
2018-04-22T09:24:58.550Z,18.51
2018-04-22T09:25:58.538Z,18.53
2018-04-22T09:26:58.597Z,18.51
2018-04-22T09:27:58.973Z,18.49
2018-04-22T09:28:58.704Z,18.53
2018-04-22T09:29:58.559Z,18.63
2018-04-22T09:30:58.516Z,18.64
2018-04-22T09:31:58.619Z,18.66
2018-04-22T09:32:58.472Z,18.67
2018-04-22T09:33:58.601Z,18.66
2018-04-22T09:34:58.566Z,18.71
2018-04-22T09:35:58.567Z,18.71
2018-04-22T09:36:58.511Z,18.7
2018-04-22T09:37:58.962Z,18.73
2018-04-22T09:38:58.487Z,18.75
2018-04-22T09:39:58.459Z,18.78
2018-04-22T09:40:58.647Z,18.78
2018-04-22T09:41:58.902Z,18.85
2018-04-22T09:42:58.527Z,18.84
2018-04-22T09:43:58.749Z,18.84
2018-04-22T09:44:58.628Z,18.81
2018-04-22T09:45:59.298Z,18.81
2018-04-22T09:46:58.461Z,18.83
2018-04-22T09:47:58.453Z,18.87
2018-04-22T09:48:58.668Z,18.85
2018-04-22T09:49:59.017Z,18.87
2018-04-22T09:50:58.655Z,18.9
2018-04-22T09:51:58.570Z,18.87
2018-04-22T09:52:58.549Z,18.94
2018-04-22T09:53:58.676Z,18.95
2018-04-22T09:54:58.583Z,18.92
2018-04-22T09:55:58.699Z,18.95
2018-04-22T09:56:58.706Z,18.97
2018-04-22T09:57:58.697Z,18.99
2018-04-22T09:58:58.701Z,19.02
2018-04-22T09:59:58.491Z,19.03
2018-04-22T10:00:58.498Z,19.01
2018-04-22T10:01:58.491Z,19.03
2018-04-22T10:02:58.712Z,19.05
2018-04-22T10:03:58.673Z,19.03
2018-04-22T10:04:58.882Z,19.05
2018-04-22T10:05:58.645Z,19.06
2018-04-22T10:06:58.652Z,19.11
2018-04-22T10:07:58.705Z,19.12
2018-04-22T10:08:58.583Z,19.11
2018-04-22T10:09:58.615Z,19.12
2018-04-22T10:10:59.098Z,19.11
2018-04-22T10:11:58.499Z,19.09
2018-04-22T10:12:58.680Z,19.09
2018-04-22T10:13:58.582Z,19.08
2018-04-22T10:14:58.479Z,19.11
2018-04-22T10:15:58.685Z,19.11
2018-04-22T10:16:58.785Z,19.09
2018-04-22T10:17:58.587Z,19.12
2018-04-22T10:18:58.856Z,19.11
2018-04-22T10:19:58.792Z,19.12
2018-04-22T10:20:58.561Z,19.16
2018-04-22T10:21:58.957Z,19.16
2018-04-22T10:22:58.665Z,19.13
2018-04-22T10:23:58.809Z,19.18
2018-04-22T10:24:58.802Z,19.15
2018-04-22T10:25:58.482Z,19.16
2018-04-22T10:26:58.577Z,19.15
2018-04-22T10:27:58.561Z,19.13
2018-04-22T10:28:58.491Z,19.13
2018-04-22T10:29:58.471Z,19.13
2018-04-22T10:30:58.446Z,19.13
2018-04-22T10:31:58.529Z,19.13
2018-04-22T10:32:58.510Z,19.18
2018-04-22T10:33:58.649Z,19.15
2018-04-22T10:34:58.691Z,19.18
2018-04-22T10:35:59.857Z,19.18
2018-04-22T10:36:58.469Z,19.13
2018-04-22T10:37:58.628Z,19.16
2018-04-22T10:38:58.683Z,19.15
2018-04-22T10:39:58.964Z,19.16
2018-04-22T10:40:58.656Z,19.16
2018-04-22T10:41:58.944Z,19.18
2018-04-22T10:42:58.594Z,19.15
2018-04-22T10:43:58.537Z,19.18
2018-04-22T10:44:58.564Z,19.19
2018-04-22T10:45:58.512Z,19.2
2018-04-22T10:46:58.605Z,19.18
2018-04-22T10:47:58.667Z,19.18
2018-04-22T10:48:58.518Z,19.19
2018-04-22T10:49:58.550Z,19.22
2018-04-22T10:50:58.530Z,19.19
2018-04-22T10:51:58.707Z,19.18
2018-04-22T10:52:58.620Z,19.22
2018-04-22T10:53:58.688Z,19.2
2018-04-22T10:54:58.535Z,19.22
2018-04-22T10:55:58.553Z,19.23
2018-04-22T10:56:58.602Z,19.22
2018-04-22T10:57:59.071Z,19.25
2018-04-22T10:58:58.564Z,19.25
2018-04-22T10:59:58.634Z,19.26
2018-04-22T11:00:58.553Z,19.25
2018-04-22T11:01:58.916Z,19.23
2018-04-22T11:02:58.484Z,19.27
2018-04-22T11:03:58.524Z,19.26
2018-04-22T11:04:58.531Z,19.26
2018-04-22T11:05:58.494Z,19.29
2018-04-22T11:06:58.567Z,19.26
2018-04-22T11:07:58.532Z,19.26
2018-04-22T11:08:58.510Z,19.27
2018-04-22T11:09:59.004Z,19.26
2018-04-22T11:10:58.445Z,19.27
2018-04-22T11:11:58.652Z,19.26
2018-04-22T11:12:59.238Z,19.27
2018-04-22T11:13:58.486Z,19.26
2018-04-22T11:14:58.636Z,19.26
2018-04-22T11:15:58.706Z,19.26
2018-04-22T11:16:58.672Z,19.26
2018-04-22T11:17:58.688Z,19.26
2018-04-22T11:18:58.497Z,19.26
2018-04-22T11:19:58.618Z,19.29
2018-04-22T11:20:58.584Z,19.29
2018-04-22T11:21:58.766Z,19.29
2018-04-22T11:22:58.649Z,19.29
2018-04-22T11:23:58.662Z,19.3
2018-04-22T11:24:58.682Z,19.29
2018-04-22T11:25:58.473Z,19.3
2018-04-22T11:26:58.553Z,19.35
2018-04-22T11:27:58.516Z,19.3
2018-04-22T11:28:58.622Z,19.32
2018-04-22T11:29:58.536Z,19.32
2018-04-22T11:30:58.724Z,19.32
2018-04-22T11:31:58.798Z,19.33
2018-04-22T11:32:58.653Z,19.35
2018-04-22T11:33:58.682Z,19.36
2018-04-22T11:34:58.508Z,19.35
2018-04-22T11:35:58.592Z,19.35
2018-04-22T11:36:58.596Z,19.32
2018-04-22T11:37:58.699Z,19.33
2018-04-22T11:38:58.781Z,19.32
2018-04-22T11:39:58.621Z,19.33
2018-04-22T11:40:58.800Z,19.32
2018-04-22T11:41:58.982Z,19.32
2018-04-22T11:42:58.564Z,19.33
2018-04-22T11:43:58.625Z,19.32
2018-04-22T11:44:58.458Z,19.32
2018-04-22T11:45:58.732Z,19.33
2018-04-22T11:46:58.510Z,19.3
2018-04-22T11:47:58.664Z,19.32
2018-04-22T11:48:58.684Z,19.32
2018-04-22T11:49:58.669Z,19.32
2018-04-22T11:50:58.417Z,19.3
2018-04-22T11:51:58.530Z,19.29
2018-04-22T11:52:58.662Z,19.3
2018-04-22T11:53:58.729Z,19.29
2018-04-22T11:54:58.642Z,19.3
2018-04-22T11:55:58.690Z,19.27
2018-04-22T11:56:58.605Z,19.27
2018-04-22T11:57:58.588Z,19.29
2018-04-22T11:58:58.581Z,19.29
2018-04-22T11:59:59.276Z,19.29
2018-04-22T12:00:58.489Z,19.27
2018-04-22T12:01:58.510Z,19.29
2018-04-22T12:02:58.485Z,19.25
2018-04-22T12:03:58.642Z,19.27
2018-04-22T12:04:58.589Z,19.29
2018-04-22T12:05:58.580Z,19.29
2018-04-22T12:06:58.546Z,19.27
2018-04-22T12:07:58.597Z,19.29
2018-04-22T12:08:58.694Z,19.23
2018-04-22T12:09:58.668Z,19.16
2018-04-22T12:10:58.676Z,19.18
2018-04-22T12:11:58.609Z,19.13
2018-04-22T12:12:58.656Z,19.11
2018-04-22T12:13:58.528Z,19.11
2018-04-22T12:14:58.625Z,19.11
2018-04-22T12:15:58.442Z,19.06
2018-04-22T12:16:58.542Z,19.06
2018-04-22T12:17:58.605Z,19.06
2018-04-22T12:18:58.507Z,19.05
2018-04-22T12:19:58.513Z,19.08
2018-04-22T12:20:58.722Z,19.09
2018-04-22T12:21:58.801Z,19.13
2018-04-22T12:22:58.471Z,19.16
2018-04-22T12:23:58.520Z,19.19
2018-04-22T12:24:58.442Z,19.22
2018-04-22T12:25:58.728Z,19.19
2018-04-22T12:26:58.585Z,19.2
2018-04-22T12:27:58.626Z,19.19
2018-04-22T12:28:58.640Z,19.22
2018-04-22T12:29:58.644Z,19.22
2018-04-22T12:30:58.848Z,19.25
2018-04-22T12:31:58.601Z,19.26
2018-04-22T12:32:58.609Z,19.29
2018-04-22T12:33:58.507Z,19.26
2018-04-22T12:34:58.615Z,19.26
2018-04-22T12:35:58.736Z,19.3
2018-04-22T12:36:58.679Z,19.25
2018-04-22T12:37:58.547Z,19.25
2018-04-22T12:38:58.511Z,19.27
2018-04-22T12:39:58.700Z,19.3
2018-04-22T12:40:58.488Z,19.35
2018-04-22T12:41:58.556Z,19.37
2018-04-22T12:42:58.803Z,19.39
2018-04-22T12:43:58.823Z,19.39
2018-04-22T12:44:58.652Z,19.35
2018-04-22T12:45:58.547Z,19.3
2018-04-22T12:46:58.676Z,19.35
2018-04-22T12:47:58.765Z,19.36
2018-04-22T12:48:58.684Z,19.4
2018-04-22T12:49:58.628Z,19.42
2018-04-22T12:50:58.462Z,19.43
2018-04-22T12:51:58.599Z,19.4
2018-04-22T12:52:58.491Z,19.45
2018-04-22T12:53:58.661Z,19.4
2018-04-22T12:54:58.528Z,19.36
2018-04-22T12:55:58.544Z,19.33
2018-04-22T12:56:58.670Z,19.35